LEAS/OVD METAR and TAF weather

Enter ICAO airport designator
Station Type Date Time Source
LEAS METAR 2022/01/19 19:30 UTC NOAA

LEAS 191930Z 15002KT CAVOK 07/05 Q1033 NOSIG


Station Type Date Time Source
LEAS Decoded METAR 2022/01/19 19:30 UTC NOAA

Asturias / Aviles, Spain (LEAS) 43-33N 006-02W 130M
Jan 19, 2022 - 02:30 PM EST / 2022.01.19 1930 UTC
Wind: from the SSE (150 degrees) at 2 MPH (2 KT):0
Visibility: greater than 7 mile(s):0
Temperature: 44 F (7 C)
Dew Point: 41 F (5 C)
Relative Humidity: 87%
Pressure (altimeter): 30.50 in. Hg (1033 hPa)
ob: LEAS 191930Z 15002KT CAVOK 07/05 Q1033 NOSIG
cycle: 19

Station Type Date Time Source
LEAS TAF 2022/01/19 15:29 UTC NOAA

TAF LEAS 191400Z 1915/2015 09006KT CAVOK TX12/1915Z TN04/2006Z
TEMPO 2000/2015 3000 -RA BR BKN010 PROB40
TEMPO 2006/2015 3000 RA BKN005

Example: see airport list